sensor_id;sensor_type;location;lat;lon;timestamp;P1;durP1;ratioP1;P2;durP2;ratioP2
549;SDS011;20066;48.764;9.176;2023-08-12T00:00:21;10.57;;;7.00;;
549;SDS011;20066;48.764;9.176;2023-08-12T00:02:51;10.40;;;7.13;;
549;SDS011;20066;48.764;9.176;2023-08-12T00:05:21;13.73;;;7.20;;
549;SDS011;20066;48.764;9.176;2023-08-12T00:08:07;9.27;;;6.53;;
549;SDS011;20066;48.764;9.176;2023-08-12T00:10:36;12.70;;;7.10;;
549;SDS011;20066;48.764;9.176;2023-08-12T00:13:04;12.70;;;7.27;;
549;SDS011;20066;48.764;9.176;2023-08-12T00:15:32;11.20;;;6.90;;
549;SDS011;20066;48.764;9.176;2023-08-12T00:18:00;11.23;;;6.97;;
549;SDS011;20066;48.764;9.176;2023-08-12T00:20:33;11.87;;;7.97;;
549;SDS011;20066;48.764;9.176;2023-08-12T00:23:02;11.60;;;7.50;;
549;SDS011;20066;48.764;9.176;2023-08-12T00:25:30;8.73;;;6.63;;
549;SDS011;20066;48.764;9.176;2023-08-12T00:27:59;14.93;;;7.57;;
549;SDS011;20066;48.764;9.176;2023-08-12T00:30:28;10.20;;;7.10;;
549;SDS011;20066;48.764;9.176;2023-08-12T00:32:56;10.80;;;7.57;;
549;SDS011;20066;48.764;9.176;2023-08-12T00:35:25;9.53;;;7.07;;
549;SDS011;20066;48.764;9.176;2023-08-12T00:37:53;9.60;;;6.80;;
549;SDS011;20066;48.764;9.176;2023-08-12T00:40:21;12.33;;;7.33;;
549;SDS011;20066;48.764;9.176;2023-08-12T00:42:49;11.17;;;6.83;;
549;SDS011;20066;48.764;9.176;2023-08-12T00:45:18;15.60;;;7.33;;
549;SDS011;20066;48.764;9.176;2023-08-12T00:47:46;17.50;;;7.57;;
549;SDS011;20066;48.764;9.176;2023-08-12T00:50:14;17.30;;;8.00;;
549;SDS011;20066;48.764;9.176;2023-08-12T00:52:43;18.00;;;8.43;;
549;SDS011;20066;48.764;9.176;2023-08-12T00:55:12;18.47;;;8.30;;
549;SDS011;20066;48.764;9.176;2023-08-12T00:57:41;23.57;;;9.13;;
549;SDS011;20066;48.764;9.176;2023-08-12T01:00:09;20.47;;;8.57;;
549;SDS011;20066;48.764;9.176;2023-08-12T01:02:40;12.50;;;7.37;;
549;SDS011;20066;48.764;9.176;2023-08-12T01:05:12;10.70;;;7.23;;
549;SDS011;20066;48.764;9.176;2023-08-12T01:07:40;9.20;;;6.43;;
549;SDS011;20066;48.764;9.176;2023-08-12T01:10:08;10.20;;;6.80;;
549;SDS011;20066;48.764;9.176;2023-08-12T01:12:41;11.77;;;7.90;;
549;SDS011;20066;48.764;9.176;2023-08-12T01:15:17;14.50;;;7.63;;
549;SDS011;20066;48.764;9.176;2023-08-12T01:17:52;17.73;;;7.87;;
549;SDS011;20066;48.764;9.176;2023-08-12T01:20:22;15.77;;;7.90;;
549;SDS011;20066;48.764;9.176;2023-08-12T01:22:55;16.30;;;8.50;;
549;SDS011;20066;48.764;9.176;2023-08-12T01:25:26;10.50;;;6.67;;
549;SDS011;20066;48.764;9.176;2023-08-12T01:27:54;9.80;;;6.47;;
549;SDS011;20066;48.764;9.176;2023-08-12T01:30:23;11.57;;;7.40;;
549;SDS011;20066;48.764;9.176;2023-08-12T01:32:53;16.17;;;7.87;;
549;SDS011;20066;48.764;9.176;2023-08-12T01:35:26;14.30;;;7.40;;
549;SDS011;20066;48.764;9.176;2023-08-12T01:37:57;14.13;;;7.47;;
549;SDS011;20066;48.764;9.176;2023-08-12T01:40:29;16.37;;;7.87;;
549;SDS011;20066;48.764;9.176;2023-08-12T01:42:59;18.03;;;8.57;;
549;SDS011;20066;48.764;9.176;2023-08-12T01:45:30;19.60;;;8.20;;
549;SDS011;20066;48.764;9.176;2023-08-12T01:47:59;16.90;;;8.23;;
549;SDS011;20066;48.764;9.176;2023-08-12T01:50:28;13.27;;;7.63;;
549;SDS011;20066;48.764;9.176;2023-08-12T01:52:56;11.83;;;7.20;;
549;SDS011;20066;48.764;9.176;2023-08-12T01:55:25;14.20;;;7.80;;
549;SDS011;20066;48.764;9.176;2023-08-12T01:57:55;10.93;;;7.20;;
549;SDS011;20066;48.764;9.176;2023-08-12T02:00:23;11.47;;;6.90;;
549;SDS011;20066;48.764;9.176;2023-08-12T02:02:51;10.03;;;6.47;;
549;SDS011;20066;48.764;9.176;2023-08-12T02:05:19;11.00;;;7.30;;
549;SDS011;20066;48.764;9.176;2023-08-12T02:07:47;12.80;;;8.30;;
549;SDS011;20066;48.764;9.176;2023-08-12T02:10:16;10.97;;;6.90;;
549;SDS011;20066;48.764;9.176;2023-08-12T02:12:44;12.67;;;8.03;;
549;SDS011;20066;48.764;9.176;2023-08-12T02:15:13;12.93;;;7.50;;
549;SDS011;20066;48.764;9.176;2023-08-12T02:17:41;14.90;;;7.17;;
549;SDS011;20066;48.764;9.176;2023-08-12T02:20:10;10.37;;;7.40;;
549;SDS011;20066;48.764;9.176;2023-08-12T02:22:38;11.00;;;7.30;;
549;SDS011;20066;48.764;9.176;2023-08-12T02:25:07;13.83;;;6.83;;
549;SDS011;20066;48.764;9.176;2023-08-12T02:27:35;15.30;;;7.70;;
549;SDS011;20066;48.764;9.176;2023-08-12T02:30:04;10.60;;;7.33;;
549;SDS011;20066;48.764;9.176;2023-08-12T02:32:34;9.43;;;7.10;;
549;SDS011;20066;48.764;9.176;2023-08-12T02:35:03;11.93;;;8.00;;
549;SDS011;20066;48.764;9.176;2023-08-12T02:37:31;12.00;;;8.20;;
549;SDS011;20066;48.764;9.176;2023-08-12T02:39:59;10.50;;;6.57;;
549;SDS011;20066;48.764;9.176;2023-08-12T02:42:27;13.03;;;7.17;;
549;SDS011;20066;48.764;9.176;2023-08-12T02:44:55;13.03;;;7.90;;
549;SDS011;20066;48.764;9.176;2023-08-12T02:47:23;17.57;;;8.27;;
549;SDS011;20066;48.764;9.176;2023-08-12T02:49:52;16.23;;;7.20;;
549;SDS011;20066;48.764;9.176;2023-08-12T02:52:21;10.57;;;6.90;;
549;SDS011;20066;48.764;9.176;2023-08-12T02:54:48;12.83;;;7.77;;
549;SDS011;20066;48.764;9.176;2023-08-12T02:57:17;9.93;;;6.47;;
549;SDS011;20066;48.764;9.176;2023-08-12T02:59:44;10.13;;;7.27;;
549;SDS011;20066;48.764;9.176;2023-08-12T03:02:13;10.60;;;7.50;;
549;SDS011;20066;48.764;9.176;2023-08-12T03:04:42;11.47;;;7.97;;
549;SDS011;20066;48.764;9.176;2023-08-12T03:07:12;10.10;;;7.37;;
549;SDS011;20066;48.764;9.176;2023-08-12T03:09:40;10.83;;;7.03;;
549;SDS011;20066;48.764;9.176;2023-08-12T03:12:08;9.10;;;6.83;;
549;SDS011;20066;48.764;9.176;2023-08-12T03:14:36;11.13;;;6.77;;
549;SDS011;20066;48.764;9.176;2023-08-12T03:17:04;10.27;;;7.20;;
549;SDS011;20066;48.764;9.176;2023-08-12T03:19:32;10.23;;;7.20;;
549;SDS011;20066;48.764;9.176;2023-08-12T03:22:00;9.67;;;7.40;;
549;SDS011;20066;48.764;9.176;2023-08-12T03:24:30;11.17;;;7.70;;
549;SDS011;20066;48.764;9.176;2023-08-12T03:26:58;11.20;;;6.43;;
549;SDS011;20066;48.764;9.176;2023-08-12T03:29:27;9.17;;;6.53;;
549;SDS011;20066;48.764;9.176;2023-08-12T03:31:54;11.37;;;6.40;;
549;SDS011;20066;48.764;9.176;2023-08-12T03:34:23;10.40;;;7.10;;
549;SDS011;20066;48.764;9.176;2023-08-12T03:36:50;9.60;;;7.00;;
549;SDS011;20066;48.764;9.176;2023-08-12T03:39:19;14.00;;;7.37;;
549;SDS011;20066;48.764;9.176;2023-08-12T03:41:48;12.30;;;7.30;;
549;SDS011;20066;48.764;9.176;2023-08-12T03:44:18;14.37;;;8.53;;
549;SDS011;20066;48.764;9.176;2023-08-12T03:46:46;12.33;;;7.87;;
549;SDS011;20066;48.764;9.176;2023-08-12T03:49:14;17.97;;;8.27;;
549;SDS011;20066;48.764;9.176;2023-08-12T03:51:43;14.87;;;8.47;;
549;SDS011;20066;48.764;9.176;2023-08-12T03:54:12;19.70;;;8.10;;
549;SDS011;20066;48.764;9.176;2023-08-12T03:56:40;16.60;;;8.00;;
549;SDS011;20066;48.764;9.176;2023-08-12T03:59:09;21.03;;;8.27;;
549;SDS011;20066;48.764;9.176;2023-08-12T04:01:37;18.30;;;8.53;;
549;SDS011;20066;48.764;9.176;2023-08-12T04:04:05;8.90;;;6.83;;
549;SDS011;20066;48.764;9.176;2023-08-12T04:06:33;16.70;;;7.57;;
549;SDS011;20066;48.764;9.176;2023-08-12T04:09:01;10.43;;;7.20;;
549;SDS011;20066;48.764;9.176;2023-08-12T04:11:30;10.63;;;7.67;;
549;SDS011;20066;48.764;9.176;2023-08-12T04:13:58;9.17;;;6.33;;
549;SDS011;20066;48.764;9.176;2023-08-12T04:16:27;15.80;;;6.40;;
549;SDS011;20066;48.764;9.176;2023-08-12T04:18:55;14.13;;;7.47;;
549;SDS011;20066;48.764;9.176;2023-08-12T04:21:23;9.20;;;6.83;;
549;SDS011;20066;48.764;9.176;2023-08-12T04:23:51;11.60;;;6.93;;
549;SDS011;20066;48.764;9.176;2023-08-12T04:26:19;10.80;;;6.23;;
549;SDS011;20066;48.764;9.176;2023-08-12T04:28:47;11.60;;;7.13;;
549;SDS011;20066;48.764;9.176;2023-08-12T04:31:15;10.47;;;6.87;;
549;SDS011;20066;48.764;9.176;2023-08-12T04:33:44;11.23;;;6.77;;
549;SDS011;20066;48.764;9.176;2023-08-12T04:36:12;10.13;;;6.73;;
549;SDS011;20066;48.764;9.176;2023-08-12T04:38:40;11.20;;;7.43;;
549;SDS011;20066;48.764;9.176;2023-08-12T04:41:08;10.53;;;6.70;;
549;SDS011;20066;48.764;9.176;2023-08-12T04:43:36;11.23;;;8.60;;
549;SDS011;20066;48.764;9.176;2023-08-12T04:46:04;12.90;;;7.17;;
549;SDS011;20066;48.764;9.176;2023-08-12T04:48:32;12.07;;;6.90;;
549;SDS011;20066;48.764;9.176;2023-08-12T04:51:01;9.67;;;7.17;;
549;SDS011;20066;48.764;9.176;2023-08-12T04:53:31;11.23;;;6.70;;
549;SDS011;20066;48.764;9.176;2023-08-12T04:55:59;10.93;;;6.90;;
549;SDS011;20066;48.764;9.176;2023-08-12T04:58:27;10.97;;;7.07;;
549;SDS011;20066;48.764;9.176;2023-08-12T05:00:55;9.57;;;6.80;;
549;SDS011;20066;48.764;9.176;2023-08-12T05:03:24;11.93;;;6.60;;
549;SDS011;20066;48.764;9.176;2023-08-12T05:05:52;11.07;;;7.57;;
549;SDS011;20066;48.764;9.176;2023-08-12T05:08:21;11.33;;;6.77;;
549;SDS011;20066;48.764;9.176;2023-08-12T05:10:50;15.00;;;8.53;;
549;SDS011;20066;48.764;9.176;2023-08-12T05:13:18;11.10;;;7.10;;
549;SDS011;20066;48.764;9.176;2023-08-12T05:15:46;11.17;;;7.40;;
549;SDS011;20066;48.764;9.176;2023-08-12T05:18:15;11.63;;;8.30;;
549;SDS011;20066;48.764;9.176;2023-08-12T05:20:43;16.70;;;8.80;;
549;SDS011;20066;48.764;9.176;2023-08-12T05:23:12;18.90;;;7.70;;
549;SDS011;20066;48.764;9.176;2023-08-12T05:25:42;13.23;;;7.00;;
549;SDS011;20066;48.764;9.176;2023-08-12T05:28:10;15.17;;;7.50;;
549;SDS011;20066;48.764;9.176;2023-08-12T05:30:38;10.90;;;7.50;;
549;SDS011;20066;48.764;9.176;2023-08-12T05:33:06;10.63;;;7.30;;
549;SDS011;20066;48.764;9.176;2023-08-12T05:35:34;16.50;;;8.07;;
549;SDS011;20066;48.764;9.176;2023-08-12T05:38:03;11.13;;;7.40;;
549;SDS011;20066;48.764;9.176;2023-08-12T05:40:31;13.17;;;7.70;;
549;SDS011;20066;48.764;9.176;2023-08-12T05:43:00;15.67;;;8.20;;
549;SDS011;20066;48.764;9.176;2023-08-12T05:45:28;12.13;;;7.27;;
549;SDS011;20066;48.764;9.176;2023-08-12T05:47:57;16.10;;;8.07;;
549;SDS011;20066;48.764;9.176;2023-08-12T05:50:25;16.73;;;8.27;;
549;SDS011;20066;48.764;9.176;2023-08-12T05:52:53;11.03;;;7.93;;
549;SDS011;20066;48.764;9.176;2023-08-12T05:55:21;14.00;;;7.97;;
549;SDS011;20066;48.764;9.176;2023-08-12T05:57:49;14.83;;;7.10;;
549;SDS011;20066;48.764;9.176;2023-08-12T06:00:18;13.13;;;7.90;;
549;SDS011;20066;48.764;9.176;2023-08-12T06:02:46;18.90;;;8.93;;
549;SDS011;20066;48.764;9.176;2023-08-12T06:05:17;10.80;;;7.30;;
549;SDS011;20066;48.764;9.176;2023-08-12T06:07:45;13.33;;;7.87;;
549;SDS011;20066;48.764;9.176;2023-08-12T06:10:13;13.20;;;8.50;;
549;SDS011;20066;48.764;9.176;2023-08-12T06:12:41;13.63;;;7.03;;
549;SDS011;20066;48.764;9.176;2023-08-12T06:15:10;11.43;;;7.80;;
549;SDS011;20066;48.764;9.176;2023-08-12T06:17:39;15.00;;;8.17;;
549;SDS011;20066;48.764;9.176;2023-08-12T06:20:07;13.67;;;7.87;;
549;SDS011;20066;48.764;9.176;2023-08-12T06:22:36;13.30;;;8.27;;
549;SDS011;20066;48.764;9.176;2023-08-12T06:25:04;17.43;;;8.57;;
549;SDS011;20066;48.764;9.176;2023-08-12T06:27:32;16.97;;;8.60;;
549;SDS011;20066;48.764;9.176;2023-08-12T06:30:00;16.30;;;8.47;;
549;SDS011;20066;48.764;9.176;2023-08-12T06:32:30;16.90;;;8.17;;
549;SDS011;20066;48.764;9.176;2023-08-12T06:35:00;14.13;;;8.40;;
549;SDS011;20066;48.764;9.176;2023-08-12T06:37:27;14.40;;;8.07;;
549;SDS011;20066;48.764;9.176;2023-08-12T06:39:57;14.80;;;7.90;;
549;SDS011;20066;48.764;9.176;2023-08-12T06:42:24;12.07;;;7.50;;
549;SDS011;20066;48.764;9.176;2023-08-12T06:44:54;12.87;;;7.20;;
549;SDS011;20066;48.764;9.176;2023-08-12T06:47:23;12.80;;;9.43;;
549;SDS011;20066;48.764;9.176;2023-08-12T06:49:52;12.10;;;7.83;;
549;SDS011;20066;48.764;9.176;2023-08-12T06:52:21;16.00;;;8.70;;
549;SDS011;20066;48.764;9.176;2023-08-12T06:54:49;11.73;;;8.07;;
549;SDS011;20066;48.764;9.176;2023-08-12T06:57:17;12.43;;;8.30;;
549;SDS011;20066;48.764;9.176;2023-08-12T06:59:45;12.13;;;8.17;;
549;SDS011;20066;48.764;9.176;2023-08-12T07:02:13;13.10;;;7.90;;
549;SDS011;20066;48.764;9.176;2023-08-12T07:04:40;15.73;;;8.10;;
549;SDS011;20066;48.764;9.176;2023-08-12T07:07:08;13.27;;;8.90;;
549;SDS011;20066;48.764;9.176;2023-08-12T07:09:37;15.43;;;8.70;;
549;SDS011;20066;48.764;9.176;2023-08-12T07:12:06;11.83;;;7.77;;
549;SDS011;20066;48.764;9.176;2023-08-12T07:14:34;13.00;;;7.53;;
549;SDS011;20066;48.764;9.176;2023-08-12T07:17:03;13.50;;;8.80;;
549;SDS011;20066;48.764;9.176;2023-08-12T07:19:31;14.10;;;8.67;;
549;SDS011;20066;48.764;9.176;2023-08-12T07:21:59;16.30;;;9.20;;
549;SDS011;20066;48.764;9.176;2023-08-12T07:24:27;16.20;;;8.33;;
549;SDS011;20066;48.764;9.176;2023-08-12T07:26:56;16.80;;;8.77;;
549;SDS011;20066;48.764;9.176;2023-08-12T07:29:24;12.90;;;8.00;;
549;SDS011;20066;48.764;9.176;2023-08-12T07:31:52;11.37;;;7.27;;
549;SDS011;20066;48.764;9.176;2023-08-12T07:34:20;10.20;;;7.70;;
549;SDS011;20066;48.764;9.176;2023-08-12T07:36:48;10.20;;;7.30;;
549;SDS011;20066;48.764;9.176;2023-08-12T07:39:16;16.80;;;9.20;;
549;SDS011;20066;48.764;9.176;2023-08-12T07:41:44;13.63;;;8.07;;
549;SDS011;20066;48.764;9.176;2023-08-12T07:44:13;14.10;;;7.70;;
549;SDS011;20066;48.764;9.176;2023-08-12T07:46:41;11.87;;;7.13;;
549;SDS011;20066;48.764;9.176;2023-08-12T07:49:09;17.13;;;7.80;;
549;SDS011;20066;48.764;9.176;2023-08-12T07:51:37;13.20;;;8.63;;
549;SDS011;20066;48.764;9.176;2023-08-12T07:54:06;13.53;;;7.90;;
549;SDS011;20066;48.764;9.176;2023-08-12T07:56:35;16.30;;;8.37;;
549;SDS011;20066;48.764;9.176;2023-08-12T07:59:03;14.63;;;8.60;;
549;SDS011;20066;48.764;9.176;2023-08-12T08:01:36;20.00;;;9.07;;
549;SDS011;20066;48.764;9.176;2023-08-12T08:04:08;15.53;;;8.10;;
549;SDS011;20066;48.764;9.176;2023-08-12T08:06:36;14.87;;;7.87;;
549;SDS011;20066;48.764;9.176;2023-08-12T08:09:04;11.53;;;7.47;;
549;SDS011;20066;48.764;9.176;2023-08-12T08:11:32;12.20;;;7.40;;
549;SDS011;20066;48.764;9.176;2023-08-12T08:14:00;15.40;;;7.93;;
549;SDS011;20066;48.764;9.176;2023-08-12T08:16:28;12.77;;;7.37;;
549;SDS011;20066;48.764;9.176;2023-08-12T08:18:57;20.90;;;8.40;;
549;SDS011;20066;48.764;9.176;2023-08-12T08:21:25;13.27;;;7.57;;
549;SDS011;20066;48.764;9.176;2023-08-12T08:23:54;14.83;;;7.40;;
549;SDS011;20066;48.764;9.176;2023-08-12T08:26:22;22.20;;;9.23;;
549;SDS011;20066;48.764;9.176;2023-08-12T08:28:50;17.30;;;8.63;;
549;SDS011;20066;48.764;9.176;2023-08-12T08:31:18;16.97;;;9.20;;
549;SDS011;20066;48.764;9.176;2023-08-12T08:33:46;18.83;;;9.30;;
549;SDS011;20066;48.764;9.176;2023-08-12T08:36:15;22.97;;;9.10;;
549;SDS011;20066;48.764;9.176;2023-08-12T08:38:43;29.70;;;9.83;;
549;SDS011;20066;48.764;9.176;2023-08-12T08:41:10;25.83;;;9.30;;
549;SDS011;20066;48.764;9.176;2023-08-12T08:43:38;25.03;;;9.50;;
549;SDS011;20066;48.764;9.176;2023-08-12T08:46:10;25.40;;;8.40;;
549;SDS011;20066;48.764;9.176;2023-08-12T08:48:42;22.30;;;10.00;;
549;SDS011;20066;48.764;9.176;2023-08-12T08:51:11;25.67;;;9.10;;
549;SDS011;20066;48.764;9.176;2023-08-12T08:53:40;28.47;;;10.30;;
549;SDS011;20066;48.764;9.176;2023-08-12T08:56:11;24.80;;;8.60;;
549;SDS011;20066;48.764;9.176;2023-08-12T08:58:41;22.10;;;8.93;;
549;SDS011;20066;48.764;9.176;2023-08-12T09:01:09;29.17;;;9.03;;
549;SDS011;20066;48.764;9.176;2023-08-12T09:03:38;24.23;;;9.70;;
549;SDS011;20066;48.764;9.176;2023-08-12T09:06:06;20.67;;;8.13;;
549;SDS011;20066;48.764;9.176;2023-08-12T09:08:35;15.47;;;7.63;;
549;SDS011;20066;48.764;9.176;2023-08-12T09:11:06;20.03;;;8.13;;
549;SDS011;20066;48.764;9.176;2023-08-12T09:13:35;17.40;;;7.90;;
549;SDS011;20066;48.764;9.176;2023-08-12T09:16:03;20.57;;;8.13;;
549;SDS011;20066;48.764;9.176;2023-08-12T09:18:31;22.53;;;9.10;;
549;SDS011;20066;48.764;9.176;2023-08-12T09:20:59;20.03;;;8.53;;
549;SDS011;20066;48.764;9.176;2023-08-12T09:23:26;13.53;;;8.03;;
549;SDS011;20066;48.764;9.176;2023-08-12T09:25:54;11.37;;;6.67;;
549;SDS011;20066;48.764;9.176;2023-08-12T09:28:24;13.23;;;7.20;;
549;SDS011;20066;48.764;9.176;2023-08-12T09:30:52;11.40;;;7.00;;
549;SDS011;20066;48.764;9.176;2023-08-12T09:33:23;12.27;;;6.97;;
549;SDS011;20066;48.764;9.176;2023-08-12T09:35:52;10.47;;;6.73;;
549;SDS011;20066;48.764;9.176;2023-08-12T09:38:23;12.20;;;6.70;;
549;SDS011;20066;48.764;9.176;2023-08-12T09:40:51;15.60;;;7.17;;
549;SDS011;20066;48.764;9.176;2023-08-12T09:43:24;7.83;;;4.60;;
549;SDS011;20066;48.764;9.176;2023-08-12T09:45:56;8.80;;;4.73;;
549;SDS011;20066;48.764;9.176;2023-08-12T09:48:25;11.50;;;5.67;;
549;SDS011;20066;48.764;9.176;2023-08-12T09:50:53;6.37;;;4.17;;
549;SDS011;20066;48.764;9.176;2023-08-12T09:53:21;8.90;;;4.37;;
549;SDS011;20066;48.764;9.176;2023-08-12T09:55:50;8.27;;;4.07;;
549;SDS011;20066;48.764;9.176;2023-08-12T09:58:20;9.30;;;4.50;;
549;SDS011;20066;48.764;9.176;2023-08-12T10:00:52;7.70;;;4.17;;
549;SDS011;20066;48.764;9.176;2023-08-12T10:03:21;9.50;;;5.30;;
549;SDS011;20066;48.764;9.176;2023-08-12T10:05:50;7.43;;;4.90;;
549;SDS011;20066;48.764;9.176;2023-08-12T10:08:20;8.57;;;4.40;;
549;SDS011;20066;48.764;9.176;2023-08-12T10:10:48;5.77;;;3.90;;
549;SDS011;20066;48.764;9.176;2023-08-12T10:13:37;10.20;;;4.50;;
549;SDS011;20066;48.764;9.176;2023-08-12T10:16:07;9.90;;;4.20;;
549;SDS011;20066;48.764;9.176;2023-08-12T10:18:36;6.93;;;4.23;;
549;SDS011;20066;48.764;9.176;2023-08-12T10:21:05;11.43;;;5.20;;
549;SDS011;20066;48.764;9.176;2023-08-12T10:23:38;12.47;;;4.67;;
549;SDS011;20066;48.764;9.176;2023-08-12T10:26:09;12.57;;;6.00;;
549;SDS011;20066;48.764;9.176;2023-08-12T10:28:39;7.37;;;4.60;;
549;SDS011;20066;48.764;9.176;2023-08-12T10:31:08;6.77;;;4.43;;
549;SDS011;20066;48.764;9.176;2023-08-12T10:33:38;9.33;;;4.53;;
549;SDS011;20066;48.764;9.176;2023-08-12T10:36:07;9.43;;;5.00;;
549;SDS011;20066;48.764;9.176;2023-08-12T10:38:37;13.27;;;5.37;;
549;SDS011;20066;48.764;9.176;2023-08-12T10:41:15;11.80;;;6.07;;
549;SDS011;20066;48.764;9.176;2023-08-12T10:43:54;13.83;;;5.63;;
549;SDS011;20066;48.764;9.176;2023-08-12T10:46:26;17.90;;;6.40;;
549;SDS011;20066;48.764;9.176;2023-08-12T10:49:02;10.90;;;6.23;;
549;SDS011;20066;48.764;9.176;2023-08-12T10:51:41;14.80;;;6.80;;
549;SDS011;20066;48.764;9.176;2023-08-12T10:54:22;10.80;;;5.97;;
549;SDS011;20066;48.764;9.176;2023-08-12T10:57:06;14.63;;;5.37;;
549;SDS011;20066;48.764;9.176;2023-08-12T10:59:52;16.93;;;5.30;;
549;SDS011;20066;48.764;9.176;2023-08-12T11:02:25;15.83;;;6.17;;
549;SDS011;20066;48.764;9.176;2023-08-12T11:04:55;12.90;;;4.90;;
549;SDS011;20066;48.764;9.176;2023-08-12T11:07:28;8.43;;;5.03;;
549;SDS011;20066;48.764;9.176;2023-08-12T11:10:03;7.10;;;4.40;;
549;SDS011;20066;48.764;9.176;2023-08-12T11:12:34;8.83;;;5.60;;
549;SDS011;20066;48.764;9.176;2023-08-12T11:15:04;10.80;;;4.40;;
549;SDS011;20066;48.764;9.176;2023-08-12T11:17:33;6.47;;;4.10;;
549;SDS011;20066;48.764;9.176;2023-08-12T11:20:02;6.10;;;3.70;;
549;SDS011;20066;48.764;9.176;2023-08-12T11:22:33;10.73;;;3.77;;
549;SDS011;20066;48.764;9.176;2023-08-12T11:25:04;6.00;;;3.90;;
549;SDS011;20066;48.764;9.176;2023-08-12T11:27:38;7.40;;;4.37;;
549;SDS011;20066;48.764;9.176;2023-08-12T11:30:10;12.03;;;4.87;;
549;SDS011;20066;48.764;9.176;2023-08-12T11:32:41;13.33;;;5.40;;
549;SDS011;20066;48.764;9.176;2023-08-12T11:35:10;10.73;;;4.40;;
549;SDS011;20066;48.764;9.176;2023-08-12T11:37:40;11.70;;;6.10;;
549;SDS011;20066;48.764;9.176;2023-08-12T11:40:09;11.07;;;5.40;;
549;SDS011;20066;48.764;9.176;2023-08-12T11:42:41;10.70;;;4.30;;
549;SDS011;20066;48.764;9.176;2023-08-12T11:45:13;7.80;;;5.10;;
549;SDS011;20066;48.764;9.176;2023-08-12T11:47:43;9.53;;;5.30;;
549;SDS011;20066;48.764;9.176;2023-08-12T11:50:13;11.23;;;4.33;;
549;SDS011;20066;48.764;9.176;2023-08-12T11:52:41;10.60;;;5.87;;
549;SDS011;20066;48.764;9.176;2023-08-12T11:55:09;7.20;;;4.50;;
549;SDS011;20066;48.764;9.176;2023-08-12T11:57:38;8.67;;;4.60;;
549;SDS011;20066;48.764;9.176;2023-08-12T12:00:08;9.20;;;4.60;;
549;SDS011;20066;48.764;9.176;2023-08-12T12:02:46;7.70;;;5.13;;
549;SDS011;20066;48.764;9.176;2023-08-12T12:05:16;15.63;;;5.13;;
549;SDS011;20066;48.764;9.176;2023-08-12T12:07:49;6.60;;;4.20;;
549;SDS011;20066;48.764;9.176;2023-08-12T12:10:19;7.37;;;4.53;;
549;SDS011;20066;48.764;9.176;2023-08-12T12:12:49;9.50;;;5.63;;
549;SDS011;20066;48.764;9.176;2023-08-12T12:15:17;17.53;;;7.50;;
549;SDS011;20066;48.764;9.176;2023-08-12T12:17:46;13.27;;;6.43;;
549;SDS011;20066;48.764;9.176;2023-08-12T12:20:15;11.83;;;6.73;;
549;SDS011;20066;48.764;9.176;2023-08-12T12:22:43;14.03;;;7.43;;
549;SDS011;20066;48.764;9.176;2023-08-12T12:25:13;17.23;;;7.10;;
549;SDS011;20066;48.764;9.176;2023-08-12T12:27:42;12.73;;;7.17;;
549;SDS011;20066;48.764;9.176;2023-08-12T12:30:13;11.00;;;6.23;;
549;SDS011;20066;48.764;9.176;2023-08-12T12:32:42;15.70;;;6.90;;
549;SDS011;20066;48.764;9.176;2023-08-12T12:35:11;13.57;;;7.00;;
549;SDS011;20066;48.764;9.176;2023-08-12T12:37:39;13.23;;;7.70;;
549;SDS011;20066;48.764;9.176;2023-08-12T12:40:08;12.53;;;7.47;;
549;SDS011;20066;48.764;9.176;2023-08-12T12:42:37;13.63;;;7.43;;
549;SDS011;20066;48.764;9.176;2023-08-12T12:45:06;12.13;;;7.23;;
549;SDS011;20066;48.764;9.176;2023-08-12T12:47:34;15.47;;;7.40;;
549;SDS011;20066;48.764;9.176;2023-08-12T12:50:04;14.73;;;7.33;;
549;SDS011;20066;48.764;9.176;2023-08-12T12:52:34;9.60;;;5.70;;
549;SDS011;20066;48.764;9.176;2023-08-12T12:55:02;13.53;;;6.47;;
549;SDS011;20066;48.764;9.176;2023-08-12T12:57:31;12.67;;;7.27;;
549;SDS011;20066;48.764;9.176;2023-08-12T13:00:08;13.30;;;7.10;;
549;SDS011;20066;48.764;9.176;2023-08-12T13:02:48;13.90;;;7.27;;
549;SDS011;20066;48.764;9.176;2023-08-12T13:05:16;15.30;;;8.23;;
549;SDS011;20066;48.764;9.176;2023-08-12T13:07:45;15.57;;;8.07;;
549;SDS011;20066;48.764;9.176;2023-08-12T13:10:13;18.03;;;9.30;;
549;SDS011;20066;48.764;9.176;2023-08-12T13:12:41;17.57;;;8.47;;
549;SDS011;20066;48.764;9.176;2023-08-12T13:15:09;20.47;;;8.60;;
549;SDS011;20066;48.764;9.176;2023-08-12T13:17:38;15.00;;;7.70;;
549;SDS011;20066;48.764;9.176;2023-08-12T13:20:06;14.43;;;7.67;;
549;SDS011;20066;48.764;9.176;2023-08-12T13:22:36;20.20;;;9.10;;
549;SDS011;20066;48.764;9.176;2023-08-12T13:25:05;16.90;;;8.10;;
549;SDS011;20066;48.764;9.176;2023-08-12T13:27:34;17.80;;;8.37;;
549;SDS011;20066;48.764;9.176;2023-08-12T13:30:02;15.77;;;8.10;;
549;SDS011;20066;48.764;9.176;2023-08-12T13:32:31;14.77;;;8.50;;
549;SDS011;20066;48.764;9.176;2023-08-12T13:34:59;13.77;;;9.03;;
549;SDS011;20066;48.764;9.176;2023-08-12T13:37:27;17.20;;;9.20;;
549;SDS011;20066;48.764;9.176;2023-08-12T13:39:55;14.17;;;8.30;;
549;SDS011;20066;48.764;9.176;2023-08-12T13:42:24;14.83;;;8.97;;
549;SDS011;20066;48.764;9.176;2023-08-12T13:44:52;13.17;;;8.40;;
549;SDS011;20066;48.764;9.176;2023-08-12T13:47:20;14.13;;;8.60;;
549;SDS011;20066;48.764;9.176;2023-08-12T13:49:48;14.00;;;8.00;;
549;SDS011;20066;48.764;9.176;2023-08-12T13:52:16;15.90;;;6.77;;
549;SDS011;20066;48.764;9.176;2023-08-12T13:54:44;11.50;;;7.00;;
549;SDS011;20066;48.764;9.176;2023-08-12T13:57:11;12.10;;;6.90;;
549;SDS011;20066;48.764;9.176;2023-08-12T13:59:41;14.60;;;6.50;;
549;SDS011;20066;48.764;9.176;2023-08-12T14:02:10;12.10;;;6.33;;
549;SDS011;20066;48.764;9.176;2023-08-12T14:04:38;12.03;;;6.23;;
549;SDS011;20066;48.764;9.176;2023-08-12T14:07:06;8.90;;;5.17;;
549;SDS011;20066;48.764;9.176;2023-08-12T14:09:35;8.97;;;5.40;;
549;SDS011;20066;48.764;9.176;2023-08-12T14:12:03;14.47;;;6.70;;
549;SDS011;20066;48.764;9.176;2023-08-12T14:14:31;8.70;;;5.40;;
549;SDS011;20066;48.764;9.176;2023-08-12T14:17:01;15.13;;;5.70;;
549;SDS011;20066;48.764;9.176;2023-08-12T14:19:29;13.57;;;5.70;;
549;SDS011;20066;48.764;9.176;2023-08-12T14:21:56;8.20;;;4.73;;
549;SDS011;20066;48.764;9.176;2023-08-12T14:24:24;13.60;;;5.20;;
549;SDS011;20066;48.764;9.176;2023-08-12T14:26:52;7.50;;;4.90;;
549;SDS011;20066;48.764;9.176;2023-08-12T14:29:20;8.73;;;5.20;;
549;SDS011;20066;48.764;9.176;2023-08-12T14:31:48;8.37;;;5.40;;
549;SDS011;20066;48.764;9.176;2023-08-12T14:34:17;7.00;;;4.67;;
549;SDS011;20066;48.764;9.176;2023-08-12T14:36:45;6.50;;;4.43;;
549;SDS011;20066;48.764;9.176;2023-08-12T14:39:13;12.50;;;4.27;;
549;SDS011;20066;48.764;9.176;2023-08-12T14:41:41;7.90;;;3.77;;
549;SDS011;20066;48.764;9.176;2023-08-12T14:44:09;8.20;;;4.40;;
549;SDS011;20066;48.764;9.176;2023-08-12T14:46:36;7.67;;;4.37;;
549;SDS011;20066;48.764;9.176;2023-08-12T14:49:04;10.10;;;5.30;;
549;SDS011;20066;48.764;9.176;2023-08-12T14:51:33;9.17;;;4.77;;
549;SDS011;20066;48.764;9.176;2023-08-12T14:54:01;12.90;;;5.23;;
549;SDS011;20066;48.764;9.176;2023-08-12T14:56:29;11.60;;;5.23;;
549;SDS011;20066;48.764;9.176;2023-08-12T14:58:57;8.03;;;3.27;;
549;SDS011;20066;48.764;9.176;2023-08-12T15:01:25;4.70;;;3.07;;
549;SDS011;20066;48.764;9.176;2023-08-12T15:03:54;4.47;;;3.10;;
549;SDS011;20066;48.764;9.176;2023-08-12T15:06:23;9.40;;;4.53;;
549;SDS011;20066;48.764;9.176;2023-08-12T15:08:52;6.83;;;4.20;;
549;SDS011;20066;48.764;9.176;2023-08-12T15:11:20;6.13;;;4.13;;
549;SDS011;20066;48.764;9.176;2023-08-12T15:13:48;8.00;;;3.33;;
549;SDS011;20066;48.764;9.176;2023-08-12T15:16:16;13.43;;;4.20;;